Terminal Aerodrome Forecast
Issued by NWS

Current Version | Previous Version | Graphics & Text | Print | Product List | Glossary On
Versions: 1 2 3 4 5 6 7 8 9 10 11 12 13 14 15 16 17 18 19 20 21 22
000
FTUS41 KILN 181133
TAFLUK
TAF
KLUK 181133Z 1812/1912 00000KT 5SM BR BKN130
     FM181400 19003KT P6SM VCSH SCT045 BKN090
     FM181800 19004KT P6SM VCTS SCT045CB BKN090
     FM190000 00000KT P6SM BKN090
     FM190600 00000KT 4SM BR VCSH SCT040 BKN090=

USA.gov is the U.S. government's official web portal to all federal, state and local government web resources and services.